Time,TemperatureF,DewpointF,PressureIn,WindDirection,WindDirectionDegrees,WindSpeedMPH,WindSpeedGustMPH,Humidity,HourlyPrecipIn,Conditions,Clouds,dailyrainin,SoftwareType,DateUTC
2013-05-20 00:01:00,64.2,62.1,29.42,NE,56,0.0,1.0,93,0.00,,,0.00,WeatherCatV1.15B25,2013-05-20 05:01:00,
2013-05-20 00:06:00,64.2,62.1,29.42,ENE,57,1.0,1.0,93,0.00,,,0.00,WeatherCatV1.15B25,2013-05-20 05:06:00,
2013-05-20 00:11:00,64.1,62.0,29.42,ENE,60,0.0,1.0,93,0.00,,,0.00,WeatherCatV1.15B25,2013-05-20 05:11:00,
2013-05-20 00:16:00,64.1,62.0,29.42,NE,43,2.0,3.0,93,0.00,,,0.00,WeatherCatV1.15B25,2013-05-20 05:16:00,
2013-05-20 00:21:00,64.2,62.4,29.42,SE,128,2.0,3.0,94,0.00,,,0.00,WeatherCatV1.15B25,2013-05-20 05:21:00,
2013-05-20 00:26:00,64.2,62.4,29.42,SE,128,0.0,2.0,94,0.00,,,0.00,WeatherCatV1.15B25,2013-05-20 05:26:00,
2013-05-20 00:31:00,64.1,62.3,29.42,ESE,114,2.0,4.0,94,0.00,,,0.00,WeatherCatV1.15B25,2013-05-20 05:31:00,
2013-05-20 00:36:00,64.1,62.3,29.41,East,84,1.0,1.0,94,0.00,,,0.00,WeatherCatV1.15B25,2013-05-20 05:36:00,
2013-05-20 00:41:00,64.1,62.3,29.41,ESE,120,0.0,1.0,94,0.00,,,0.00,WeatherCatV1.15B25,2013-05-20 05:41:00,
2013-05-20 00:46:00,64.1,62.0,29.40,East,91,0.0,5.0,93,0.00,,,0.00,WeatherCatV1.15B25,2013-05-20 05:46:00,
2013-05-20 00:51:00,64.0,61.9,29.40,East,93,0.0,1.0,93,0.00,,,0.00,WeatherCatV1.15B25,2013-05-20 05:51:00,
2013-05-20 00:56:00,64.0,61.9,29.40,East,91,1.0,1.0,93,0.00,,,0.00,WeatherCatV1.15B25,2013-05-20 05:56:00,
2013-05-20 01:01:00,64.0,61.6,29.40,SE,128,0.0,4.0,92,0.00,,,0.00,WeatherCatV1.15B25,2013-05-20 06:01:00,
2013-05-20 01:06:00,63.9,61.5,29.39,ESE,118,1.0,1.0,92,0.00,,,0.00,WeatherCatV1.15B25,2013-05-20 06:06:00,
2013-05-20 01:11:00,63.8,61.4,29.39,ESE,118,0.0,2.0,92,0.00,,,0.00,WeatherCatV1.15B25,2013-05-20 06:11:00,
2013-05-20 01:16:00,63.8,61.4,29.39,ESE,115,1.0,2.0,92,0.00,,,0.00,WeatherCatV1.15B25,2013-05-20 06:16:00,
2013-05-20 01:21:00,63.7,61.6,29.39,ESE,115,2.0,3.0,93,0.00,,,0.00,WeatherCatV1.15B25,2013-05-20 06:21:00,
2013-05-20 01:26:00,63.6,61.5,29.39,ESE,115,1.0,3.0,93,0.00,,,0.00,WeatherCatV1.15B25,2013-05-20 06:26:00,
2013-05-20 01:31:00,63.6,61.5,29.39,ESE,115,0.0,2.0,93,0.00,,,0.00,WeatherCatV1.15B25,2013-05-20 06:31:00,
2013-05-20 01:36:00,63.5,61.4,29.40,SE,137,3.0,4.0,93,0.00,,,0.00,WeatherCatV1.15B25,2013-05-20 06:36:00,
2013-05-20 01:41:00,62.4,59.1,29.40,SSE,153,2.0,5.0,89,0.00,,,0.00,WeatherCatV1.15B25,2013-05-20 06:41:00,
2013-05-20 01:46:00,61.3,58.6,29.40,SE,133,3.0,9.0,91,0.00,,,0.00,WeatherCatV1.15B25,2013-05-20 06:46:00,
2013-05-20 01:51:00,60.3,57.7,29.41,ESE,107,5.0,8.0,91,0.00,,,0.00,WeatherCatV1.15B25,2013-05-20 06:51:00,
2013-05-20 01:56:00,59.7,57.4,29.41,SSE,150,2.0,5.0,92,0.00,,,0.01,WeatherCatV1.15B25,2013-05-20 06:56:00,
2013-05-20 02:00:00,59.3,57.3,29.41,ESE,116,3.0,7.0,93,0.00,,,0.01,WeatherCatV1.15B25,2013-05-20 07:00:00,
2013-05-20 02:05:00,59.0,57.0,29.41,SE,140,4.0,9.0,93,0.00,,,0.01,WeatherCatV1.15B25,2013-05-20 07:05:00,
2013-05-20 02:10:00,58.8,57.1,29.41,SSE,160,0.0,10.0,94,0.00,,,0.01,WeatherCatV1.15B25,2013-05-20 07:10:00,
2013-05-20 02:15:00,58.7,57.0,29.41,SE,140,3.0,5.0,94,0.00,,,0.01,WeatherCatV1.15B25,2013-05-20 07:15:00,
2013-05-20 02:20:00,58.6,56.9,29.41,SSW,193,0.0,6.0,94,0.00,,,0.01,WeatherCatV1.15B25,2013-05-20 07:20:00,
2013-05-20 02:25:00,58.6,56.9,29.41,SE,130,1.0,5.0,94,0.00,,,0.01,WeatherCatV1.15B25,2013-05-20 07:25:00,
2013-05-20 02:30:00,58.5,56.8,29.41,SSE,167,4.0,5.0,94,0.00,,,0.01,WeatherCatV1.15B25,2013-05-20 07:30:00,
2013-05-20 02:35:00,58.5,56.8,29.41,SSE,151,5.0,6.0,94,0.00,,,0.01,WeatherCatV1.15B25,2013-05-20 07:35:00,
2013-05-20 02:40:00,58.5,56.8,29.41,ESE,117,2.0,5.0,94,0.00,,,0.01,WeatherCatV1.15B25,2013-05-20 07:40:00,
2013-05-20 02:45:00,58.5,56.8,29.41,SSE,155,2.0,5.0,94,0.00,,,0.01,WeatherCatV1.15B25,2013-05-20 07:45:00,
2013-05-20 02:50:00,58.5,56.8,29.41,ESE,122,0.0,7.0,94,0.00,,,0.01,WeatherCatV1.15B25,2013-05-20 07:50:00,
2013-05-20 02:55:00,58.5,56.8,29.41,SE,128,3.0,5.0,94,0.00,,,0.01,WeatherCatV1.15B25,2013-05-20 07:55:00,
2013-05-20 03:00:00,58.5,56.5,29.40,South,183,0.0,4.0,93,0.00,,,0.01,WeatherCatV1.15B25,2013-05-20 08:00:00,
2013-05-20 03:05:00,58.5,56.5,29.40,SE,139,0.0,2.0,93,0.00,,,0.01,WeatherCatV1.15B25,2013-05-20 08:05:00,
2013-05-20 03:10:00,58.6,56.6,29.40,SSE,168,0.0,2.0,93,0.00,,,0.01,WeatherCatV1.15B25,2013-05-20 08:10:00,
2013-05-20 03:15:00,58.6,56.9,29.40,SE,139,1.0,5.0,94,0.00,,,0.01,WeatherCatV1.15B25,2013-05-20 08:15:00,
2013-05-20 03:20:00,58.7,56.7,29.40,South,179,0.0,4.0,93,0.00,,,0.01,WeatherCatV1.15B25,2013-05-20 08:20:00,
2013-05-20 03:25:00,58.7,56.7,29.39,SE,144,0.0,1.0,93,0.00,,,0.01,WeatherCatV1.15B25,2013-05-20 08:25:00,
2013-05-20 03:30:00,58.9,56.9,29.39,ESE,120,2.0,5.0,93,0.00,,,0.01,WeatherCatV1.15B25,2013-05-20 08:30:00,
2013-05-20 03:35:00,58.9,56.9,29.39,SSE,165,1.0,3.0,93,0.00,,,0.01,WeatherCatV1.15B25,2013-05-20 08:35:00,
2013-05-20 03:40:00,58.9,56.9,29.39,ESE,116,1.0,7.0,93,0.00,,,0.01,WeatherCatV1.15B25,2013-05-20 08:40:00,
2013-05-20 03:45:00,58.9,56.9,29.38,SE,143,1.0,8.0,93,0.00,,,0.01,WeatherCatV1.15B25,2013-05-20 08:45:00,
2013-05-20 03:50:00,58.9,56.9,29.38,SSE,147,3.0,3.0,93,0.00,,,0.01,WeatherCatV1.15B25,2013-05-20 08:50:00,
2013-05-20 03:55:00,58.8,56.8,29.39,SE,139,1.0,4.0,93,0.00,,,0.01,WeatherCatV1.15B25,2013-05-20 08:55:00,
2013-05-20 04:00:00,58.8,57.1,29.38,ESE,116,4.0,9.0,94,0.00,,,0.01,WeatherCatV1.15B25,2013-05-20 09:00:00,
2013-05-20 04:05:00,58.8,57.1,29.38,SSE,151,1.0,4.0,94,0.00,,,0.01,WeatherCatV1.15B25,2013-05-20 09:05:00,
2013-05-20 04:10:00,58.7,57.0,29.38,SE,126,1.0,3.0,94,0.00,,,0.01,WeatherCatV1.15B25,2013-05-20 09:10:00,
2013-05-20 04:15:00,58.7,57.0,29.37,SE,141,2.0,4.0,94,0.00,,,0.01,WeatherCatV1.15B25,2013-05-20 09:15:00,
2013-05-20 04:20:00,58.6,56.9,29.38,SE,135,0.0,4.0,94,0.00,,,0.01,WeatherCatV1.15B25,2013-05-20 09:20:00,
2013-05-20 04:25:00,58.6,56.9,29.37,South,183,0.0,1.0,94,0.00,,,0.01,WeatherCatV1.15B25,2013-05-20 09:25:00,
2013-05-20 04:30:00,58.5,56.8,29.38,South,183,0.0,0.0,94,0.00,,,0.01,WeatherCatV1.15B25,2013-05-20 09:30:00,
2013-05-20 04:35:00,58.5,57.1,29.38,South,183,0.0,1.0,95,0.00,,,0.01,WeatherCatV1.15B25,2013-05-20 09:35:00,
2013-05-20 04:40:00,58.5,57.1,29.38,South,183,0.0,1.0,95,0.00,,,0.01,WeatherCatV1.15B25,2013-05-20 09:40:00,
2013-05-20 04:45:00,58.5,57.1,29.38,South,183,0.0,0.0,95,0.00,,,0.01,WeatherCatV1.15B25,2013-05-20 09:45:00,
2013-05-20 04:50:00,58.6,57.2,29.38,South,183,0.0,1.0,95,0.00,,,0.01,WeatherCatV1.15B25,2013-05-20 09:50:00,
2013-05-20 04:55:00,58.6,57.5,29.38,South,180,0.0,1.0,96,0.00,,,0.01,WeatherCatV1.15B25,2013-05-20 09:55:00,
2013-05-20 05:00:00,58.7,57.6,29.38,South,180,0.0,1.0,96,0.00,,,0.01,WeatherCatV1.15B25,2013-05-20 10:00:00,
2013-05-20 05:05:00,58.8,57.7,29.39,South,181,0.0,0.0,96,0.00,,,0.01,WeatherCatV1.15B25,2013-05-20 10:05:00,
2013-05-20 05:10:00,58.9,57.8,29.39,SSE,163,0.0,0.0,96,0.00,,,0.01,WeatherCatV1.15B25,2013-05-20 10:10:00,
2013-05-20 05:15:00,58.8,57.4,29.39,SSE,164,0.0,2.0,95,0.00,,,0.01,WeatherCatV1.15B25,2013-05-20 10:15:00,
2013-05-20 05:20:00,58.5,57.1,29.40,SW,222,0.0,0.0,95,0.00,,,0.01,WeatherCatV1.15B25,2013-05-20 10:20:00,
2013-05-20 05:25:00,58.4,57.0,29.40,SW,221,0.0,1.0,95,0.00,,,0.01,WeatherCatV1.15B25,2013-05-20 10:25:00,
2013-05-20 05:30:00,58.1,56.7,29.40,SW,217,3.0,3.0,95,0.00,,,0.01,WeatherCatV1.15B25,2013-05-20 10:30:00,
2013-05-20 05:35:00,57.9,56.5,29.40,SW,217,0.0,1.0,95,0.00,,,0.01,WeatherCatV1.15B25,2013-05-20 10:35:00,
2013-05-20 05:40:00,57.7,56.3,29.40,West,272,0.0,4.0,95,0.00,,,0.01,WeatherCatV1.15B25,2013-05-20 10:40:00,
2013-05-20 05:45:00,57.5,56.1,29.40,WNW,291,0.0,3.0,95,0.00,,,0.01,WeatherCatV1.15B25,2013-05-20 10:45:00,
2013-05-20 05:50:00,57.2,55.8,29.39,WNW,291,0.0,5.0,95,0.00,,,0.01,WeatherCatV1.15B25,2013-05-20 10:50:00,
2013-05-20 05:55:00,56.9,55.5,29.40,WNW,303,1.0,2.0,95,0.00,,,0.01,WeatherCatV1.15B25,2013-05-20 10:55:00,
2013-05-20 05:56:00,56.9,55.5,29.40,WNW,303,0.0,2.0,95,0.00,,,0.01,WeatherCatV1.15B25,2013-05-20 10:56:00,
2013-05-20 06:01:00,56.8,55.4,29.40,NW,320,3.0,3.0,95,0.00,,,0.01,WeatherCatV1.15B25,2013-05-20 11:01:00,
2013-05-20 06:06:00,56.7,55.3,29.40,WNW,291,1.0,3.0,95,0.00,,,0.01,WeatherCatV1.15B25,2013-05-20 11:06:00,
2013-05-20 06:11:00,56.6,55.2,29.39,West,266,1.0,5.0,95,0.00,,,0.01,WeatherCatV1.15B25,2013-05-20 11:11:00,
2013-05-20 06:16:00,56.5,55.1,29.40,WSW,245,1.0,3.0,95,0.00,,,0.01,WeatherCatV1.15B25,2013-05-20 11:16:00,
2013-05-20 06:21:00,56.5,54.8,29.40,WNW,292,1.0,5.0,94,0.00,,,0.01,WeatherCatV1.15B25,2013-05-20 11:21:00,
2013-05-20 06:26:00,56.6,54.9,29.40,WNW,288,0.0,2.0,94,0.00,,,0.01,WeatherCatV1.15B25,2013-05-20 11:26:00,
2013-05-20 06:31:00,56.6,54.9,29.40,SW,219,1.0,5.0,94,0.00,,,0.01,WeatherCatV1.15B25,2013-05-20 11:31:00,
2013-05-20 06:36:00,56.5,55.1,29.40,West,263,2.0,3.0,95,0.00,,,0.01,WeatherCatV1.15B25,2013-05-20 11:36:00,
2013-05-20 06:41:00,56.4,55.0,29.40,SW,226,1.0,3.0,95,0.00,,,0.01,WeatherCatV1.15B25,2013-05-20 11:41:00,
2013-05-20 06:46:00,56.4,55.0,29.40,WNW,301,6.0,6.0,95,0.00,,,0.01,WeatherCatV1.15B25,2013-05-20 11:46:00,
2013-05-20 06:51:00,56.3,54.9,29.40,WSW,250,0.0,2.0,95,0.00,,,0.01,WeatherCatV1.15B25,2013-05-20 11:51:00,
2013-05-20 06:56:00,56.2,54.8,29.40,WSW,258,1.0,2.0,95,0.00,,,0.01,WeatherCatV1.15B25,2013-05-20 11:56:00,
2013-05-20 07:01:00,56.2,54.8,29.40,WNW,301,0.0,4.0,95,0.00,,,0.01,WeatherCatV1.15B25,2013-05-20 12:01:00,
2013-05-20 07:06:00,56.2,54.8,29.40,SSW,192,0.0,2.0,95,0.00,,,0.01,WeatherCatV1.15B25,2013-05-20 12:06:00,
2013-05-20 07:11:00,56.3,54.9,29.40,WNW,289,0.0,3.0,95,0.00,,,0.01,WeatherCatV1.15B25,2013-05-20 12:11:00,
2013-05-20 07:16:00,56.3,54.9,29.41,WNW,290,1.0,1.0,95,0.00,,,0.01,WeatherCatV1.15B25,2013-05-20 12:16:00,
2013-05-20 07:21:00,56.4,55.0,29.41,West,261,0.0,1.0,95,0.00,,,0.01,WeatherCatV1.15B25,2013-05-20 12:21:00,
2013-05-20 07:26:00,56.6,55.2,29.41,South,174,0.0,1.0,95,0.00,,,0.01,WeatherCatV1.15B25,2013-05-20 12:26:00,
2013-05-20 07:31:00,56.6,55.2,29.42,SW,230,0.0,4.0,95,0.00,,,0.01,WeatherCatV1.15B25,2013-05-20 12:31:00,
2013-05-20 07:36:00,56.7,55.3,29.42,WSW,254,2.0,4.0,95,0.00,,,0.01,WeatherCatV1.15B25,2013-05-20 12:36:00,
2013-05-20 07:41:00,56.7,55.3,29.42,South,189,1.0,1.0,95,0.00,,,0.01,WeatherCatV1.15B25,2013-05-20 12:41:00,
2013-05-20 07:46:00,56.8,55.1,29.42,South,187,0.0,2.0,94,0.00,,,0.01,WeatherCatV1.15B25,2013-05-20 12:46:00,
2013-05-20 07:51:00,56.8,55.4,29.43,SE,131,0.0,3.0,95,0.00,,,0.01,WeatherCatV1.15B25,2013-05-20 12:51:00,
2013-05-20 07:56:00,56.8,55.1,29.43,SE,140,5.0,6.0,94,0.00,,,0.01,WeatherCatV1.15B25,2013-05-20 12:56:00,
2013-05-20 08:01:00,56.6,54.9,29.43,SSW,199,1.0,3.0,94,0.00,,,0.01,WeatherCatV1.15B25,2013-05-20 13:01:00,
2013-05-20 08:06:00,56.6,54.9,29.43,South,175,4.0,10.0,94,0.00,,,0.01,WeatherCatV1.15B25,2013-05-20 13:06:00,
2013-05-20 08:11:00,56.5,54.8,29.43,WNW,283,0.0,7.0,94,0.00,,,0.01,WeatherCatV1.15B25,2013-05-20 13:11:00,
2013-05-20 08:16:00,56.4,54.7,29.44,SSW,197,0.0,6.0,94,0.00,,,0.01,WeatherCatV1.15B25,2013-05-20 13:16:00,
2013-05-20 08:21:00,56.4,54.7,29.44,SSW,199,0.0,1.0,94,0.00,,,0.01,WeatherCatV1.15B25,2013-05-20 13:21:00,
2013-05-20 08:26:00,56.5,54.8,29.44,SSE,168,3.0,5.0,94,0.00,,,0.01,WeatherCatV1.15B25,2013-05-20 13:26:00,
2013-05-20 08:31:00,56.5,54.8,29.44,South,182,3.0,3.0,94,0.00,,,0.01,WeatherCatV1.15B25,2013-05-20 13:31:00,
2013-05-20 08:36:00,56.7,55.0,29.44,SE,133,4.0,4.0,94,0.00,,,0.01,WeatherCatV1.15B25,2013-05-20 13:36:00,
2013-05-20 08:41:00,56.7,54.7,29.44,SSE,167,1.0,2.0,93,0.00,,,0.01,WeatherCatV1.15B25,2013-05-20 13:41:00,
2013-05-20 08:46:00,56.8,54.8,29.44,SW,216,3.0,7.0,93,0.00,,,0.01,WeatherCatV1.15B25,2013-05-20 13:46:00,
2013-05-20 08:51:00,56.7,54.7,29.45,SSE,168,0.0,3.0,93,0.00,,,0.01,WeatherCatV1.15B25,2013-05-20 13:51:00,
2013-05-20 08:56:00,56.6,54.6,29.45,South,176,2.0,3.0,93,0.00,,,0.01,WeatherCatV1.15B25,2013-05-20 13:56:00,
2013-05-20 09:01:00,56.6,54.6,29.45,SW,224,1.0,5.0,93,0.00,,,0.01,WeatherCatV1.15B25,2013-05-20 14:01:00,
2013-05-20 09:06:00,56.6,54.6,29.45,South,173,3.0,3.0,93,0.00,,,0.01,WeatherCatV1.15B25,2013-05-20 14:06:00,
2013-05-20 09:11:00,56.6,54.6,29.45,SSE,150,1.0,3.0,93,0.00,,,0.01,WeatherCatV1.15B25,2013-05-20 14:11:00,
2013-05-20 09:16:00,56.8,54.8,29.45,SW,222,3.0,3.0,93,0.00,,,0.01,WeatherCatV1.15B25,2013-05-20 14:16:00,
2013-05-20 09:21:00,56.8,54.8,29.45,SE,146,2.0,5.0,93,0.00,,,0.01,WeatherCatV1.15B25,2013-05-20 14:21:00,
2013-05-20 09:26:00,56.9,54.9,29.45,SSE,154,0.0,1.0,93,0.00,,,0.01,WeatherCatV1.15B25,2013-05-20 14:26:00,
2013-05-20 09:31:00,57.0,55.0,29.45,ESE,118,0.0,2.0,93,0.00,,,0.01,WeatherCatV1.15B25,2013-05-20 14:31:00,
2013-05-20 09:36:00,57.2,55.2,29.45,SSE,166,1.0,5.0,93,0.00,,,0.01,WeatherCatV1.15B25,2013-05-20 14:36:00,
2013-05-20 09:41:00,57.7,55.7,29.45,SSE,164,2.0,4.0,93,0.00,,,0.01,WeatherCatV1.15B25,2013-05-20 14:41:00,
2013-05-20 09:46:00,58.2,55.3,29.45,SSE,160,0.0,3.0,90,0.00,,,0.01,WeatherCatV1.15B25,2013-05-20 14:46:00,
2013-05-20 09:51:00,59.0,56.1,29.45,WNW,288,2.0,4.0,90,0.00,,,0.01,WeatherCatV1.15B25,2013-05-20 14:51:00,
2013-05-20 09:56:00,59.5,55.3,29.45,SW,226,1.0,3.0,86,0.00,,,0.01,WeatherCatV1.15B25,2013-05-20 14:56:00,
2013-05-20 10:01:00,59.8,55.6,29.45,West,262,0.0,4.0,86,0.00,,,0.01,WeatherCatV1.15B25,2013-05-20 15:01:00,
2013-05-20 10:06:00,59.9,55.4,29.45,SSE,157,1.0,4.0,85,0.00,,,0.01,WeatherCatV1.15B25,2013-05-20 15:06:00,
2013-05-20 10:11:00,60.2,54.7,29.45,ESE,123,2.0,4.0,82,0.00,,,0.01,WeatherCatV1.15B25,2013-05-20 15:11:00,
2013-05-20 10:16:00,60.5,54.6,29.45,SSW,197,0.0,4.0,81,0.00,,,0.01,WeatherCatV1.15B25,2013-05-20 15:16:00,
2013-05-20 10:21:00,60.6,54.7,29.45,WNW,301,3.0,3.0,81,0.00,,,0.01,WeatherCatV1.15B25,2013-05-20 15:21:00,
2013-05-20 10:26:00,60.7,54.8,29.45,SW,216,1.0,8.0,81,0.00,,,0.01,WeatherCatV1.15B25,2013-05-20 15:26:00,
2013-05-20 10:31:00,60.9,55.4,29.45,SSW,213,1.0,4.0,82,0.00,,,0.01,WeatherCatV1.15B25,2013-05-20 15:31:00,
2013-05-20 10:36:00,61.2,55.7,29.45,South,171,3.0,7.0,82,0.00,,,0.01,WeatherCatV1.15B25,2013-05-20 15:36:00,
2013-05-20 10:41:00,61.5,54.9,29.44,SSW,193,6.0,7.0,79,0.00,,,0.01,WeatherCatV1.15B25,2013-05-20 15:41:00,
2013-05-20 10:46:00,61.7,55.1,29.44,SW,217,3.0,5.0,79,0.00,,,0.01,WeatherCatV1.15B25,2013-05-20 15:46:00,
2013-05-20 10:51:00,62.2,55.6,29.44,ESE,110,4.0,5.0,79,0.00,,,0.01,WeatherCatV1.15B25,2013-05-20 15:51:00,
2013-05-20 10:56:00,62.7,55.7,29.44,SSE,167,2.0,4.0,78,0.00,,,0.01,WeatherCatV1.15B25,2013-05-20 15:56:00,
2013-05-20 11:01:00,63.1,56.5,29.44,WSW,246,3.0,4.0,79,0.00,,,0.01,WeatherCatV1.15B25,2013-05-20 16:01:00,
2013-05-20 11:06:00,63.4,55.3,29.44,South,191,2.0,12.0,75,0.00,,,0.01,WeatherCatV1.15B25,2013-05-20 16:06:00,
2013-05-20 11:11:00,63.0,54.9,29.44,South,189,0.0,6.0,75,0.00,,,0.01,WeatherCatV1.15B25,2013-05-20 16:11:00,
2013-05-20 11:16:00,62.8,54.8,29.44,SSW,193,2.0,7.0,75,0.00,,,0.01,WeatherCatV1.15B25,2013-05-20 16:16:00,
2013-05-20 11:21:00,62.9,54.5,29.45,South,172,2.0,11.0,74,0.00,,,0.01,WeatherCatV1.15B25,2013-05-20 16:21:00,
2013-05-20 11:26:00,63.0,54.9,29.45,SSW,192,3.0,7.0,75,0.00,,,0.01,WeatherCatV1.15B25,2013-05-20 16:26:00,
2013-05-20 11:31:00,62.9,55.2,29.45,SE,140,12.0,12.0,76,0.00,,,0.01,WeatherCatV1.15B25,2013-05-20 16:31:00,
2013-05-20 11:36:00,62.5,54.1,29.45,WSW,242,1.0,7.0,74,0.00,,,0.01,WeatherCatV1.15B25,2013-05-20 16:36:00,
2013-05-20 11:41:00,62.4,54.7,29.44,SSW,207,5.0,7.0,76,0.00,,,0.01,WeatherCatV1.15B25,2013-05-20 16:41:00,
2013-05-20 11:46:00,62.4,54.7,29.44,SSE,168,4.0,8.0,76,0.00,,,0.01,WeatherCatV1.15B25,2013-05-20 16:46:00,
2013-05-20 11:51:00,63.0,56.0,29.44,ESE,103,7.0,7.0,78,0.00,,,0.01,WeatherCatV1.15B25,2013-05-20 16:51:00,
2013-05-20 11:56:00,64.7,58.0,29.44,SE,141,1.0,5.0,79,0.00,,,0.01,WeatherCatV1.15B25,2013-05-20 16:56:00,
2013-05-20 12:01:00,65.6,57.1,29.44,SE,129,1.0,5.0,74,0.00,,,0.01,WeatherCatV1.15B25,2013-05-20 17:01:00,
2013-05-20 12:06:00,65.9,55.8,29.44,West,280,1.0,9.0,70,0.00,,,0.01,WeatherCatV1.15B25,2013-05-20 17:06:00,
2013-05-20 12:11:00,65.3,55.3,29.44,WSW,253,3.0,4.0,70,0.00,,,0.01,WeatherCatV1.15B25,2013-05-20 17:11:00,
2013-05-20 12:16:00,64.7,55.8,29.45,WSW,252,3.0,5.0,73,0.00,,,0.01,WeatherCatV1.15B25,2013-05-20 17:16:00,
2013-05-20 12:21:00,64.7,55.8,29.44,WSW,242,7.0,7.0,73,0.00,,,0.01,WeatherCatV1.15B25,2013-05-20 17:21:00,
2013-05-20 12:26:00,64.4,55.2,29.45,SSE,154,3.0,7.0,72,0.00,,,0.01,WeatherCatV1.15B25,2013-05-20 17:26:00,
2013-05-20 12:31:00,63.7,54.9,29.45,ESE,108,4.0,7.0,73,0.00,,,0.01,WeatherCatV1.15B25,2013-05-20 17:31:00,
2013-05-20 12:36:00,62.5,55.9,29.45,South,174,2.0,8.0,79,0.00,,,0.01,WeatherCatV1.15B25,2013-05-20 17:36:00,
2013-05-20 12:41:00,61.6,55.7,29.45,SSW,212,1.0,6.0,81,0.00,,,0.01,WeatherCatV1.15B25,2013-05-20 17:41:00,
2013-05-20 12:46:00,61.5,55.6,29.45,SSE,151,1.0,7.0,81,0.00,,,0.01,WeatherCatV1.15B25,2013-05-20 17:46:00,
2013-05-20 12:51:00,62.2,56.3,29.44,NNW,334,3.0,4.0,81,0.00,,,0.01,WeatherCatV1.15B25,2013-05-20 17:51:00,
2013-05-20 12:56:00,63.1,55.8,29.44,SSE,166,2.0,5.0,77,0.00,,,0.01,WeatherCatV1.15B25,2013-05-20 17:56:00,
2013-05-20 13:01:00,64.2,56.8,29.44,SE,138,3.0,7.0,77,0.00,,,0.01,WeatherCatV1.15B25,2013-05-20 18:01:00,
2013-05-20 13:06:00,64.9,56.4,29.44,SE,136,5.0,10.0,74,0.00,,,0.01,WeatherCatV1.15B25,2013-05-20 18:06:00,
2013-05-20 13:11:00,64.7,55.8,29.44,SSE,165,5.0,5.0,73,0.00,,,0.01,WeatherCatV1.15B25,2013-05-20 18:11:00,
2013-05-20 13:16:00,64.4,54.8,29.44,SE,139,2.0,10.0,71,0.00,,,0.01,WeatherCatV1.15B25,2013-05-20 18:16:00,
2013-05-20 13:21:00,64.3,55.1,29.44,SSE,164,3.0,7.0,72,0.00,,,0.01,WeatherCatV1.15B25,2013-05-20 18:21:00,
2013-05-20 13:26:00,64.3,55.5,29.44,SE,145,4.0,5.0,73,0.00,,,0.01,WeatherCatV1.15B25,2013-05-20 18:26:00,
2013-05-20 13:31:00,64.3,54.7,29.44,SE,142,0.0,6.0,71,0.00,,,0.01,WeatherCatV1.15B25,2013-05-20 18:31:00,
2013-05-20 13:36:00,64.7,54.7,29.44,SSE,159,3.0,16.0,70,0.00,,,0.01,WeatherCatV1.15B25,2013-05-20 18:36:00,
2013-05-20 13:41:00,65.2,54.4,29.45,South,187,5.0,13.0,68,0.00,,,0.01,WeatherCatV1.15B25,2013-05-20 18:41:00,
2013-05-20 13:46:00,65.2,54.4,29.45,SE,145,4.0,9.0,68,0.00,,,0.01,WeatherCatV1.15B25,2013-05-20 18:46:00,
2013-05-20 13:51:00,65.0,54.6,29.45,SSE,162,0.0,7.0,69,0.00,,,0.01,WeatherCatV1.15B25,2013-05-20 18:51:00,
2013-05-20 13:56:00,64.9,54.1,29.45,SW,228,3.0,9.0,68,0.00,,,0.01,WeatherCatV1.15B25,2013-05-20 18:56:00,
2013-05-20 14:01:00,65.0,54.6,29.45,NW,322,3.0,8.0,69,0.00,,,0.01,WeatherCatV1.15B25,2013-05-20 19:01:00,
2013-05-20 14:06:00,65.0,55.0,29.45,SSW,205,6.0,8.0,70,0.00,,,0.01,WeatherCatV1.15B25,2013-05-20 19:06:00,
2013-05-20 14:11:00,64.9,54.9,29.45,SW,226,5.0,8.0,70,0.00,,,0.01,WeatherCatV1.15B25,2013-05-20 19:11:00,
2013-05-20 14:16:00,64.9,54.1,29.45,South,188,3.0,8.0,68,0.00,,,0.01,WeatherCatV1.15B25,2013-05-20 19:16:00,
2013-05-20 14:21:00,65.4,55.4,29.45,SSW,192,0.0,3.0,70,0.00,,,0.01,WeatherCatV1.15B25,2013-05-20 19:21:00,
2013-05-20 14:26:00,65.9,55.4,29.45,South,184,2.0,3.0,69,0.00,,,0.01,WeatherCatV1.15B25,2013-05-20 19:26:00,
2013-05-20 14:31:00,65.8,54.9,29.45,SW,230,1.0,5.0,68,0.00,,,0.01,WeatherCatV1.15B25,2013-05-20 19:31:00,
2013-05-20 14:36:00,65.6,55.1,29.45,South,180,1.0,6.0,69,0.00,,,0.01,WeatherCatV1.15B25,2013-05-20 19:36:00,
2013-05-20 14:41:00,65.4,54.6,29.45,South,170,3.0,7.0,68,0.00,,,0.01,WeatherCatV1.15B25,2013-05-20 19:41:00,
2013-05-20 14:46:00,65.5,54.2,29.45,WNW,294,6.0,8.0,67,0.00,,,0.01,WeatherCatV1.15B25,2013-05-20 19:46:00,
2013-05-20 14:51:00,65.6,54.3,29.45,SSE,152,3.0,10.0,67,0.00,,,0.01,WeatherCatV1.15B25,2013-05-20 19:51:00,
2013-05-20 14:56:00,65.7,54.4,29.45,South,174,2.0,7.0,67,0.00,,,0.01,WeatherCatV1.15B25,2013-05-20 19:56:00,
2013-05-20 15:01:00,65.6,53.9,29.45,ESE,116,10.0,10.0,66,0.00,,,0.01,WeatherCatV1.15B25,2013-05-20 20:01:00,
2013-05-20 15:06:00,65.5,53.4,29.45,SSW,210,0.0,9.0,65,0.00,,,0.01,WeatherCatV1.15B25,2013-05-20 20:06:00,
2013-05-20 15:11:00,65.5,54.2,29.45,SSE,163,0.0,4.0,67,0.00,,,0.01,WeatherCatV1.15B25,2013-05-20 20:11:00,
2013-05-20 15:16:00,65.8,54.5,29.44,South,174,5.0,7.0,67,0.00,,,0.01,WeatherCatV1.15B25,2013-05-20 20:16:00,
2013-05-20 15:21:00,66.2,54.1,29.44,SSE,166,2.0,8.0,65,0.00,,,0.01,WeatherCatV1.15B25,2013-05-20 20:21:00,
2013-05-20 15:26:00,66.5,54.8,29.44,SSW,203,1.0,10.0,66,0.00,,,0.01,WeatherCatV1.15B25,2013-05-20 20:26:00,
2013-05-20 15:31:00,66.8,54.6,29.44,South,191,0.0,9.0,65,0.00,,,0.01,WeatherCatV1.15B25,2013-05-20 20:31:00,
2013-05-20 15:36:00,66.8,54.6,29.44,SW,223,2.0,7.0,65,0.00,,,0.01,WeatherCatV1.15B25,2013-05-20 20:36:00,
2013-05-20 15:41:00,66.7,54.1,29.44,SSW,203,3.0,4.0,64,0.00,,,0.01,WeatherCatV1.15B25,2013-05-20 20:41:00,
2013-05-20 15:46:00,66.9,53.4,29.45,SE,140,3.0,6.0,62,0.00,,,0.01,WeatherCatV1.15B25,2013-05-20 20:46:00,
2013-05-20 15:51:00,67.4,53.9,29.44,SW,214,3.0,7.0,62,0.00,,,0.01,WeatherCatV1.15B25,2013-05-20 20:51:00,
2013-05-20 15:56:00,67.6,53.7,29.44,SSW,199,1.0,7.0,61,0.00,,,0.01,WeatherCatV1.15B25,2013-05-20 20:56:00,
2013-05-20 16:01:00,67.6,54.1,29.44,SE,143,2.0,7.0,62,0.00,,,0.01,WeatherCatV1.15B25,2013-05-20 21:01:00,
2013-05-20 16:06:00,67.4,53.9,29.44,SSW,193,2.0,7.0,62,0.00,,,0.01,WeatherCatV1.15B25,2013-05-20 21:06:00,
2013-05-20 16:11:00,67.2,53.7,29.44,SE,140,4.0,8.0,62,0.00,,,0.01,WeatherCatV1.15B25,2013-05-20 21:11:00,
2013-05-20 16:16:00,66.9,53.9,29.44,SE,133,0.0,7.0,63,0.00,,,0.01,WeatherCatV1.15B25,2013-05-20 21:16:00,
2013-05-20 16:21:00,66.7,54.6,29.44,SSW,202,3.0,6.0,65,0.00,,,0.01,WeatherCatV1.15B25,2013-05-20 21:21:00,
2013-05-20 16:26:00,66.3,53.7,29.44,SE,139,2.0,7.0,64,0.00,,,0.01,WeatherCatV1.15B25,2013-05-20 21:26:00,
2013-05-20 16:31:00,65.9,53.8,29.44,South,182,3.0,6.0,65,0.00,,,0.01,WeatherCatV1.15B25,2013-05-20 21:31:00,
2013-05-20 16:36:00,65.6,53.9,29.44,SE,137,0.0,2.0,66,0.00,,,0.01,WeatherCatV1.15B25,2013-05-20 21:36:00,
2013-05-20 16:41:00,65.5,54.2,29.44,SE,143,2.0,2.0,67,0.00,,,0.01,WeatherCatV1.15B25,2013-05-20 21:41:00,
2013-05-20 16:46:00,65.4,54.6,29.44,South,179,0.0,4.0,68,0.00,,,0.01,WeatherCatV1.15B25,2013-05-20 21:46:00,
2013-05-20 16:51:00,65.5,54.7,29.44,SE,137,2.0,3.0,68,0.00,,,0.01,WeatherCatV1.15B25,2013-05-20 21:51:00,
2013-05-20 16:56:00,66.1,54.8,29.44,SSW,199,1.0,5.0,67,0.00,,,0.01,WeatherCatV1.15B25,2013-05-20 21:56:00,
2013-05-20 17:01:00,66.6,54.9,29.43,SSE,166,3.0,4.0,66,0.00,,,0.01,WeatherCatV1.15B25,2013-05-20 22:01:00,
2013-05-20 17:06:00,66.7,54.6,29.43,SSW,193,0.0,5.0,65,0.00,,,0.01,WeatherCatV1.15B25,2013-05-20 22:06:00,
2013-05-20 17:11:00,66.7,55.0,29.43,North,5,4.0,8.0,66,0.00,,,0.01,WeatherCatV1.15B25,2013-05-20 22:11:00,
2013-05-20 17:16:00,66.8,55.1,29.43,South,183,4.0,4.0,66,0.00,,,0.01,WeatherCatV1.15B25,2013-05-20 22:16:00,
2013-05-20 17:21:00,66.8,55.1,29.44,South,170,2.0,7.0,66,0.00,,,0.01,WeatherCatV1.15B25,2013-05-20 22:21:00,
2013-05-20 17:26:00,66.8,54.2,29.44,SSE,151,4.0,8.0,64,0.00,,,0.01,WeatherCatV1.15B25,2013-05-20 22:26:00,
2013-05-20 17:31:00,66.8,54.6,29.43,SSW,210,1.0,5.0,65,0.00,,,0.01,WeatherCatV1.15B25,2013-05-20 22:31:00,
2013-05-20 17:36:00,66.7,54.1,29.43,South,188,3.0,5.0,64,0.00,,,0.01,WeatherCatV1.15B25,2013-05-20 22:36:00,
2013-05-20 17:41:00,66.6,54.5,29.43,South,181,2.0,8.0,65,0.00,,,0.01,WeatherCatV1.15B25,2013-05-20 22:41:00,
2013-05-20 17:46:00,66.5,54.4,29.43,South,187,1.0,6.0,65,0.00,,,0.01,WeatherCatV1.15B25,2013-05-20 22:46:00,
2013-05-20 17:51:00,66.5,54.8,29.43,SSW,195,1.0,5.0,66,0.00,,,0.01,WeatherCatV1.15B25,2013-05-20 22:51:00,
2013-05-20 17:56:00,66.5,54.8,29.43,SSW,198,2.0,2.0,66,0.00,,,0.01,WeatherCatV1.15B25,2013-05-20 22:56:00,
2013-05-20 18:01:00,66.3,54.2,29.43,SSW,198,3.0,4.0,65,0.00,,,0.01,WeatherCatV1.15B25,2013-05-20 23:01:00,
2013-05-20 18:06:00,66.1,54.4,29.43,SW,228,2.0,3.0,66,0.00,,,0.01,WeatherCatV1.15B25,2013-05-20 23:06:00,
2013-05-20 18:11:00,65.9,54.2,29.43,SSW,209,0.0,6.0,66,0.00,,,0.01,WeatherCatV1.15B25,2013-05-20 23:11:00,
2013-05-20 18:16:00,65.7,54.4,29.43,SW,231,1.0,5.0,67,0.00,,,0.01,WeatherCatV1.15B25,2013-05-20 23:16:00,
2013-05-20 18:21:00,65.5,54.2,29.43,SSE,153,0.0,4.0,67,0.00,,,0.01,WeatherCatV1.15B25,2013-05-20 23:21:00,
2013-05-20 18:26:00,65.4,54.1,29.43,South,189,5.0,6.0,67,0.00,,,0.01,WeatherCatV1.15B25,2013-05-20 23:26:00,
2013-05-20 18:31:00,65.1,54.3,29.43,SSW,197,1.0,5.0,68,0.00,,,0.01,WeatherCatV1.15B25,2013-05-20 23:31:00,
2013-05-20 18:36:00,64.9,54.1,29.43,South,190,2.0,3.0,68,0.00,,,0.01,WeatherCatV1.15B25,2013-05-20 23:36:00,
2013-05-20 18:41:00,64.7,54.3,29.42,SE,146,0.0,2.0,69,0.00,,,0.01,WeatherCatV1.15B25,2013-05-20 23:41:00,
2013-05-20 18:46:00,64.5,54.1,29.42,South,176,1.0,7.0,69,0.00,,,0.01,WeatherCatV1.15B25,2013-05-20 23:46:00,
2013-05-20 18:51:00,64.4,54.0,29.42,SSE,151,3.0,6.0,69,0.00,,,0.01,WeatherCatV1.15B25,2013-05-20 23:51:00,
2013-05-20 18:56:00,64.3,53.9,29.42,South,189,3.0,7.0,69,0.00,,,0.01,WeatherCatV1.15B25,2013-05-20 23:56:00,
2013-05-20 19:01:00,64.2,54.2,29.42,ESE,112,0.0,5.0,70,0.00,,,0.01,WeatherCatV1.15B25,2013-05-21 00:01:00,
2013-05-20 19:06:00,64.1,54.5,29.42,SSW,201,1.0,2.0,71,0.00,,,0.01,WeatherCatV1.15B25,2013-05-21 00:06:00,
2013-05-20 19:11:00,64.0,55.2,29.42,SSE,165,0.0,2.0,73,0.00,,,0.01,WeatherCatV1.15B25,2013-05-21 00:11:00,
2013-05-20 19:16:00,63.8,55.3,29.42,SSE,165,0.0,0.0,74,0.00,,,0.01,WeatherCatV1.15B25,2013-05-21 00:16:00,
2013-05-20 19:21:00,63.7,55.3,29.42,SSE,168,1.0,2.0,74,0.00,,,0.01,WeatherCatV1.15B25,2013-05-21 00:21:00,
2013-05-20 19:26:00,63.6,55.2,29.42,South,178,2.0,3.0,74,0.00,,,0.01,WeatherCatV1.15B25,2013-05-21 00:26:00,
2013-05-20 19:31:00,63.5,55.1,29.42,SSE,147,1.0,3.0,74,0.00,,,0.01,WeatherCatV1.15B25,2013-05-21 00:31:00,
2013-05-20 19:36:00,63.5,55.1,29.42,SSE,148,0.0,1.0,74,0.00,,,0.01,WeatherCatV1.15B25,2013-05-21 00:36:00,
2013-05-20 19:41:00,63.5,55.4,29.42,SSE,148,0.0,3.0,75,0.00,,,0.01,WeatherCatV1.15B25,2013-05-21 00:41:00,
2013-05-20 19:46:00,63.5,55.8,29.42,SSE,148,0.0,2.0,76,0.00,,,0.01,WeatherCatV1.15B25,2013-05-21 00:46:00,
2013-05-20 19:51:00,63.5,55.8,29.42,SW,223,1.0,3.0,76,0.00,,,0.01,WeatherCatV1.15B25,2013-05-21 00:51:00,
2013-05-20 19:56:00,63.4,55.7,29.42,SW,222,2.0,2.0,76,0.00,,,0.01,WeatherCatV1.15B25,2013-05-21 00:56:00,
2013-05-20 20:01:00,63.1,55.0,29.42,SW,235,1.0,2.0,75,0.00,,,0.01,WeatherCatV1.15B25,2013-05-21 01:01:00,
2013-05-20 20:06:00,62.9,55.2,29.42,South,182,0.0,0.0,76,0.00,,,0.01,WeatherCatV1.15B25,2013-05-21 01:06:00,
2013-05-20 20:11:00,62.8,55.1,29.42,SSE,162,0.0,5.0,76,0.00,,,0.01,WeatherCatV1.15B25,2013-05-21 01:11:00,
2013-05-20 20:16:00,62.6,55.3,29.42,WSW,255,0.0,1.0,77,0.00,,,0.01,WeatherCatV1.15B25,2013-05-21 01:16:00,
2013-05-20 20:21:00,62.4,55.1,29.42,South,169,0.0,2.0,77,0.00,,,0.01,WeatherCatV1.15B25,2013-05-21 01:21:00,
2013-05-20 20:26:00,62.3,55.0,29.42,South,171,0.0,2.0,77,0.00,,,0.01,WeatherCatV1.15B25,2013-05-21 01:26:00,
2013-05-20 20:31:00,62.2,54.9,29.42,SE,133,0.0,1.0,77,0.00,,,0.01,WeatherCatV1.15B25,2013-05-21 01:31:00,
2013-05-20 20:36:00,62.1,54.8,29.42,WSW,247,0.0,3.0,77,0.00,,,0.01,WeatherCatV1.15B25,2013-05-21 01:36:00,
2013-05-20 20:41:00,62.0,55.1,29.42,WSW,247,0.0,0.0,78,0.00,,,0.01,WeatherCatV1.15B25,2013-05-21 01:41:00,
2013-05-20 20:46:00,61.8,55.2,29.43,South,176,0.0,4.0,79,0.00,,,0.01,WeatherCatV1.15B25,2013-05-21 01:46:00,
2013-05-20 20:51:00,61.7,55.1,29.42,South,178,0.0,2.0,79,0.00,,,0.01,WeatherCatV1.15B25,2013-05-21 01:51:00,
2013-05-20 20:56:00,61.5,55.3,29.43,South,178,0.0,1.0,80,0.00,,,0.01,WeatherCatV1.15B25,2013-05-21 01:56:00,
2013-05-20 21:01:00,61.4,55.5,29.43,SSE,167,2.0,2.0,81,0.00,,,0.01,WeatherCatV1.15B25,2013-05-21 02:01:00,
2013-05-20 21:06:00,61.1,55.6,29.43,SW,235,2.0,3.0,82,0.00,,,0.01,WeatherCatV1.15B25,2013-05-21 02:06:00,
2013-05-20 21:11:00,60.7,55.5,29.43,West,266,3.0,3.0,83,0.00,,,0.01,WeatherCatV1.15B25,2013-05-21 02:11:00,
2013-05-20 21:16:00,60.5,55.6,29.43,West,270,0.0,2.0,84,0.00,,,0.01,WeatherCatV1.15B25,2013-05-21 02:16:00,
2013-05-20 21:21:00,60.2,55.7,29.43,West,276,4.0,4.0,85,0.00,,,0.01,WeatherCatV1.15B25,2013-05-21 02:21:00,
2013-05-20 21:26:00,60.0,55.5,29.43,WNW,290,2.0,3.0,85,0.00,,,0.01,WeatherCatV1.15B25,2013-05-21 02:26:00,
2013-05-20 21:31:00,59.7,55.5,29.43,West,273,0.0,6.0,86,0.00,,,0.01,WeatherCatV1.15B25,2013-05-21 02:31:00,
2013-05-20 21:36:00,59.5,55.6,29.43,SSW,199,0.0,2.0,87,0.00,,,0.01,WeatherCatV1.15B25,2013-05-21 02:36:00,
2013-05-20 21:41:00,59.3,55.7,29.44,West,278,3.0,6.0,88,0.00,,,0.01,WeatherCatV1.15B25,2013-05-21 02:41:00,
2013-05-20 21:46:00,59.1,55.9,29.43,SSE,162,1.0,1.0,89,0.00,,,0.01,WeatherCatV1.15B25,2013-05-21 02:46:00,
2013-05-20 21:51:00,58.9,56.0,29.43,SSE,150,0.0,2.0,90,0.00,,,0.01,WeatherCatV1.15B25,2013-05-21 02:51:00,
2013-05-20 21:56:00,58.6,56.0,29.43,SW,235,2.0,3.0,91,0.00,,,0.01,WeatherCatV1.15B25,2013-05-21 02:56:00,
2013-05-20 22:01:00,58.2,55.6,29.43,NNW,340,2.0,4.0,91,0.00,,,0.01,WeatherCatV1.15B25,2013-05-21 03:01:00,
2013-05-20 22:06:00,57.8,55.5,29.43,SW,229,1.0,4.0,92,0.00,,,0.01,WeatherCatV1.15B25,2013-05-21 03:06:00,
2013-05-20 22:11:00,57.6,55.6,29.44,WNW,301,1.0,4.0,93,0.00,,,0.01,WeatherCatV1.15B25,2013-05-21 03:11:00,
2013-05-20 22:16:00,57.5,55.8,29.44,WNW,291,3.0,6.0,94,0.00,,,0.01,WeatherCatV1.15B25,2013-05-21 03:16:00,
2013-05-20 22:21:00,57.4,55.4,29.43,WNW,290,4.0,4.0,93,0.00,,,0.01,WeatherCatV1.15B25,2013-05-21 03:21:00,
2013-05-20 22:26:00,57.3,55.3,29.44,WNW,282,4.0,5.0,93,0.00,,,0.01,WeatherCatV1.15B25,2013-05-21 03:26:00,
2013-05-20 22:31:00,57.3,55.0,29.44,WNW,289,1.0,5.0,92,0.00,,,0.01,WeatherCatV1.15B25,2013-05-21 03:31:00,
2013-05-20 22:36:00,57.4,55.1,29.44,West,279,0.0,2.0,92,0.00,,,0.01,WeatherCatV1.15B25,2013-05-21 03:36:00,
2013-05-20 22:41:00,57.3,55.0,29.44,WSW,251,1.0,4.0,92,0.00,,,0.01,WeatherCatV1.15B25,2013-05-21 03:41:00,
2013-05-20 22:46:00,57.4,55.1,29.45,West,266,1.0,2.0,92,0.00,,,0.01,WeatherCatV1.15B25,2013-05-21 03:46:00,
2013-05-20 22:51:00,57.4,55.1,29.44,NW,320,1.0,1.0,92,0.00,,,0.01,WeatherCatV1.15B25,2013-05-21 03:51:00,
2013-05-20 22:56:00,57.4,54.8,29.45,West,274,2.0,4.0,91,0.00,,,0.01,WeatherCatV1.15B25,2013-05-21 03:56:00,
2013-05-20 23:01:00,57.4,54.8,29.45,WSW,245,1.0,2.0,91,0.00,,,0.01,WeatherCatV1.15B25,2013-05-21 04:01:00,
2013-05-20 23:06:00,57.3,54.7,29.45,West,281,0.0,5.0,91,0.00,,,0.01,WeatherCatV1.15B25,2013-05-21 04:06:00,
2013-05-20 23:11:00,57.3,54.7,29.45,West,273,2.0,5.0,91,0.00,,,0.01,WeatherCatV1.15B25,2013-05-21 04:11:00,
2013-05-20 23:16:00,57.3,54.7,29.45,West,263,0.0,5.0,91,0.00,,,0.01,WeatherCatV1.15B25,2013-05-21 04:16:00,
2013-05-20 23:21:00,57.3,54.7,29.45,WNW,286,0.0,2.0,91,0.00,,,0.01,WeatherCatV1.15B25,2013-05-21 04:21:00,
2013-05-20 23:26:00,57.1,54.5,29.45,NW,307,5.0,5.0,91,0.00,,,0.01,WeatherCatV1.15B25,2013-05-21 04:26:00,
2013-05-20 23:31:00,57.1,54.5,29.46,West,276,0.0,2.0,91,0.00,,,0.01,WeatherCatV1.15B25,2013-05-21 04:31:00,
2013-05-20 23:36:00,57.1,54.5,29.45,West,276,0.0,3.0,91,0.00,,,0.01,WeatherCatV1.15B25,2013-05-21 04:36:00,
2013-05-20 23:41:00,57.0,54.4,29.45,West,276,1.0,4.0,91,0.00,,,0.01,WeatherCatV1.15B25,2013-05-21 04:41:00,
2013-05-20 23:46:00,57.0,54.7,29.45,SW,224,0.0,3.0,92,0.00,,,0.01,WeatherCatV1.15B25,2013-05-21 04:46:00,
2013-05-20 23:51:00,56.9,54.6,29.45,SW,224,2.0,3.0,92,0.00,,,0.01,WeatherCatV1.15B25,2013-05-21 04:51:00,
2013-05-20 23:56:00,56.8,54.5,29.45,South,189,0.0,4.0,92,0.00,,,0.01,WeatherCatV1.15B25,2013-05-21 04:56:00,